Time;durP1;ratioP1;P1;durP2;ratioP2;P2;SDS_P1;SDS_P2;PMS_P1;PMS_P2;Temp;Humidity;BMP_temperature;BMP_pressure;BME280_temperature;BME280_humidity;BME280_pressure;Samples;Min_cycle;Max_cycle;Signal;HPM_P1;HPM_P2
2021/11/14 00:00:55;;;;;;;103.65;35.85;;;5.80;85.10;;;;;;5038385;28;20318;-36
2021/11/14 00:03:22;;;;;;;164.50;40.08;;;5.90;85.10;;;;;;5038184;28;20030;-36
2021/11/14 00:05:48;;;;;;;261.98;55.70;;;5.90;85.20;;;;;;5038415;28;20117;-36
2021/11/14 00:08:15;;;;;;;183.88;48.47;;;5.90;85.30;;;;;;5038075;28;20017;-40
2021/11/14 00:10:44;;;;;;;130.32;41.45;;;5.90;85.50;;;;;;5038167;28;20037;-39
2021/11/14 00:13:11;;;;;;;161.82;43.83;;;5.90;85.40;;;;;;5037783;28;20033;-37
2021/11/14 00:15:37;;;;;;;115.07;37.42;;;5.90;85.40;;;;;;5038028;28;20033;-38
2021/11/14 00:18:04;;;;;;;103.72;41.88;;;5.90;85.30;;;;;;5037783;28;20429;-37
2021/11/14 00:20:31;;;;;;;81.65;39.85;;;5.90;85.20;;;;;;5038254;28;20029;-39
2021/11/14 00:22:57;;;;;;;107.15;44.15;;;5.90;84.90;;;;;;5038086;28;20117;-40
2021/11/14 00:25:23;;;;;;;179.45;54.35;;;6.00;84.80;;;;;;5037921;28;20057;-40
2021/11/14 00:27:50;;;;;;;148.90;49.97;;;6.00;84.70;;;;;;5037771;28;20361;-40
2021/11/14 00:30:16;;;;;;;126.30;51.08;;;5.90;84.60;;;;;;5038227;28;20314;-38
2021/11/14 00:32:42;;;;;;;103.28;44.58;;;5.90;84.70;;;;;;5037896;28;20040;-38
2021/11/14 00:35:09;;;;;;;102.40;45.03;;;5.90;84.70;;;;;;5038198;28;20433;-40
2021/11/14 00:37:36;;;;;;;132.13;50.65;;;5.90;84.70;;;;;;5037856;28;20033;-37
2021/11/14 00:40:14;;;;;;;133.98;50.10;;;5.90;85.10;;;;;;5038036;28;20470;-37
2021/11/14 00:42:40;;;;;;;88.00;40.10;;;5.90;84.30;;;;;;5037174;28;20045;-37
2021/11/14 00:45:08;;;;;;;140.63;48.75;;;5.90;84.50;;;;;;5038045;28;20287;-37
2021/11/14 00:47:34;;;;;;;148.90;49.05;;;5.90;84.40;;;;;;5036249;28;20026;-37
2021/11/14 00:50:06;;;;;;;71.03;35.63;;;5.90;84.30;;;;;;5037804;28;20029;-37
2021/11/14 00:52:32;;;;;;;68.50;31.52;;;5.90;84.20;;;;;;5037401;28;20410;-37
2021/11/14 00:54:57;;;;;;;57.10;31.00;;;5.90;84.10;;;;;;5037744;28;20029;-38
2021/11/14 00:57:23;;;;;;;62.20;30.63;;;5.80;83.70;;;;;;5037323;28;20040;-37
2021/11/14 00:59:49;;;;;;;65.90;35.80;;;5.80;83.40;;;;;;5037667;28;20303;-37
2021/11/14 01:02:14;;;;;;;49.10;28.05;;;5.80;83.00;;;;;;5037159;28;20095;-40
2021/11/14 01:04:40;;;;;;;73.43;36.65;;;5.80;82.90;;;;;;5037571;28;20026;-39
2021/11/14 01:07:06;;;;;;;53.88;30.70;;;5.70;82.50;;;;;;5036984;28;20044;-39
2021/11/14 01:09:32;;;;;;;63.58;34.28;;;5.70;82.30;;;;;;5036159;28;20317;-37
2021/11/14 01:11:57;;;;;;;57.08;34.47;;;5.60;82.10;;;;;;5037129;28;20041;-39
2021/11/14 01:14:23;;;;;;;50.72;28.55;;;5.60;82.00;;;;;;5037304;28;20065;-37
2021/11/14 01:16:49;;;;;;;44.95;28.80;;;5.50;81.80;;;;;;5037012;28;20035;-40
2021/11/14 01:19:15;;;;;;;46.22;27.95;;;5.50;81.80;;;;;;5036974;28;20039;-37
2021/11/14 01:21:45;;;;;;;43.20;25.55;;;5.40;81.70;;;;;;5036891;28;20030;-39
2021/11/14 01:24:13;;;;;;;46.22;29.25;;;5.40;81.60;;;;;;5037350;28;20091;-38
2021/11/14 01:26:39;;;;;;;48.42;28.30;;;5.40;81.60;;;;;;5036942;28;20053;-37
2021/11/14 01:29:04;;;;;;;51.20;29.70;;;5.30;81.50;;;;;;5036604;28;20025;-36
2021/11/14 01:31:31;;;;;;;50.20;28.30;;;5.30;81.40;;;;;;5035926;28;20037;-37
2021/11/14 01:33:57;;;;;;;54.10;30.30;;;5.20;81.40;;;;;;5036729;28;20135;-39
2021/11/14 01:36:23;;;;;;;54.70;30.88;;;5.20;81.30;;;;;;5036380;28;20038;-39
2021/11/14 01:38:49;;;;;;;49.60;29.67;;;5.20;81.10;;;;;;5036982;28;20024;-40
2021/11/14 01:41:15;;;;;;;45.00;26.75;;;5.10;81.00;;;;;;5036526;28;20043;-39
2021/11/14 01:43:51;;;;;;;48.25;29.20;;;5.10;81.00;;;;;;5036653;28;20045;-36
2021/11/14 01:46:18;;;;;;;51.60;30.00;;;5.10;80.90;;;;;;5036315;28;20026;-38
2021/11/14 01:48:44;;;;;;;49.28;28.73;;;5.00;80.80;;;;;;5036494;28;20041;-40
2021/11/14 01:51:10;;;;;;;53.30;29.42;;;5.00;80.80;;;;;;5036412;28;20026;-37
2021/11/14 01:53:37;;;;;;;43.67;26.70;;;4.90;80.70;;;;;;5036518;28;20342;-40
2021/11/14 01:56:05;;;;;;;56.00;30.13;;;4.90;80.70;;;;;;5036167;28;20032;-37
2021/11/14 01:58:31;;;;;;;47.28;26.58;;;4.90;80.80;;;;;;5036399;28;20030;-36
2021/11/14 02:00:59;;;;;;;49.85;28.45;;;4.80;80.80;;;;;;5035845;28;20021;-37
2021/11/14 02:03:27;;;;;;;46.58;25.77;;;4.80;80.90;;;;;;5036296;28;20030;-40
2021/11/14 02:05:52;;;;;;;45.53;27.65;;;4.80;80.90;;;;;;5036266;28;20084;-37
2021/11/14 02:08:20;;;;;;;52.40;28.15;;;4.80;80.80;;;;;;5036156;28;20025;-39
2021/11/14 02:10:48;;;;;;;49.60;27.00;;;4.80;80.80;;;;;;5036140;28;20326;-37
2021/11/14 02:13:14;;;;;;;61.17;33.42;;;4.70;80.90;;;;;;5035864;28;20321;-39
2021/11/14 02:15:41;;;;;;;49.90;27.38;;;4.70;80.90;;;;;;5035943;28;20033;-37
2021/11/14 02:18:08;;;;;;;54.22;27.88;;;4.70;80.90;;;;;;5035601;28;20029;-37
2021/11/14 02:20:35;;;;;;;57.55;31.23;;;4.70;81.00;;;;;;5035840;28;20026;-37
2021/11/14 02:23:01;;;;;;;56.50;29.58;;;4.70;81.10;;;;;;5035547;28;20022;-37
2021/11/14 02:25:27;;;;;;;74.25;37.55;;;4.70;81.20;;;;;;5035760;28;20152;-40
2021/11/14 02:27:54;;;;;;;73.78;36.83;;;4.70;81.30;;;;;;5035544;28;20087;-36
2021/11/14 02:30:21;;;;;;;73.45;35.25;;;4.70;81.30;;;;;;5036156;28;20025;-39
2021/11/14 02:32:47;;;;;;;69.95;36.17;;;4.70;81.30;;;;;;5035668;28;20030;-37
2021/11/14 02:35:14;;;;;;;61.75;33.15;;;4.70;81.30;;;;;;5036159;28;20045;-38
2021/11/14 02:37:39;;;;;;;60.45;30.48;;;4.70;81.30;;;;;;5035463;28;20032;-39
2021/11/14 02:40:08;;;;;;;49.40;27.52;;;4.70;81.10;;;;;;5036139;28;20025;-40
2021/11/14 02:42:34;;;;;;;60.70;31.85;;;4.70;81.10;;;;;;5034630;28;20054;-37
2021/11/14 02:44:59;;;;;;;54.58;30.45;;;4.70;81.10;;;;;;5035687;28;20428;-37
2021/11/14 02:47:25;;;;;;;57.72;30.70;;;4.70;81.10;;;;;;5035584;28;20037;-37
2021/11/14 02:49:52;;;;;;;53.25;29.88;;;4.70;81.10;;;;;;5035816;28;20030;-38
2021/11/14 02:52:18;;;;;;;53.13;28.33;;;4.70;81.20;;;;;;5035627;28;20037;-36
2021/11/14 02:54:43;;;;;;;55.60;30.55;;;4.70;81.20;;;;;;5035268;28;20418;-37
2021/11/14 02:57:09;;;;;;;57.08;30.25;;;4.60;81.10;;;;;;5035521;28;20056;-38
2021/11/14 02:59:35;;;;;;;53.72;29.33;;;4.60;81.00;;;;;;5035964;28;20026;-36
2021/11/14 03:02:02;;;;;;;51.60;27.67;;;4.60;80.90;;;;;;5035133;28;20026;-37
2021/11/14 03:04:30;;;;;;;42.58;24.65;;;4.60;80.80;;;;;;5035951;28;20029;-36
2021/11/14 03:06:59;;;;;;;49.38;26.15;;;4.60;80.60;;;;;;5035172;28;20029;-39
2021/11/14 03:09:25;;;;;;;57.83;29.38;;;4.60;80.60;;;;;;5035672;28;20029;-39
2021/11/14 03:11:53;;;;;;;56.70;29.65;;;4.60;80.40;;;;;;5035177;28;20029;-38
2021/11/14 03:14:20;;;;;;;47.45;26.40;;;4.60;80.40;;;;;;5035830;28;20341;-37
2021/11/14 03:16:45;;;;;;;54.15;27.02;;;4.50;80.30;;;;;;5035112;28;20025;-37
2021/11/14 03:19:12;;;;;;;65.80;30.85;;;4.50;80.30;;;;;;5035649;28;20099;-39
2021/11/14 03:21:38;;;;;;;58.60;28.60;;;4.50;80.30;;;;;;5035047;28;20029;-40
2021/11/14 03:24:05;;;;;;;61.20;31.40;;;4.40;80.30;;;;;;5035902;28;20029;-39
2021/11/14 03:26:31;;;;;;;55.10;27.45;;;4.40;80.40;;;;;;5035041;28;20037;-35
2021/11/14 03:28:57;;;;;;;55.15;28.70;;;4.40;80.30;;;;;;5035492;28;20034;-40
2021/11/14 03:31:25;;;;;;;53.55;25.83;;;4.40;80.30;;;;;;5035350;28;20112;-37
2021/11/14 03:33:51;;;;;;;49.65;26.95;;;4.40;80.30;;;;;;5035345;28;20056;-39
2021/11/14 03:36:17;;;;;;;55.08;30.80;;;4.40;80.40;;;;;;5035075;28;20076;-37
2021/11/14 03:38:50;;;;;;;60.15;30.17;;;4.40;80.40;;;;;;5035311;28;20438;-40
2021/11/14 03:41:21;;;;;;;49.30;26.63;;;4.40;80.50;;;;;;5035081;28;20037;-40
2021/11/14 03:43:48;;;;;;;53.63;28.08;;;4.40;80.70;;;;;;5035279;28;20034;-38
2021/11/14 03:46:14;;;;;;;47.72;24.83;;;4.40;80.70;;;;;;5035137;28;20334;-37
2021/11/14 03:48:43;;;;;;;54.47;27.88;;;4.40;80.80;;;;;;5035297;28;20036;-40
2021/11/14 03:51:11;;;;;;;58.33;29.35;;;4.40;81.00;;;;;;5035104;28;20444;-37
2021/11/14 03:53:37;;;;;;;48.55;26.33;;;4.40;81.10;;;;;;5035146;28;20044;-37
2021/11/14 03:56:04;;;;;;;52.40;27.20;;;4.40;81.10;;;;;;5038221;28;20025;-40
2021/11/14 03:58:30;;;;;;;48.92;26.42;;;4.50;81.10;;;;;;5038480;28;20025;-37
2021/11/14 04:01:03;;;;;;;46.97;24.80;;;4.50;80.80;;;;;;5038370;28;20116;-39
2021/11/14 04:03:30;;;;;;;65.10;33.47;;;4.50;80.80;;;;;;5038768;28;20033;-39
2021/11/14 04:05:56;;;;;;;54.30;27.60;;;4.50;80.70;;;;;;5038170;28;20455;-38
2021/11/14 04:08:24;;;;;;;54.97;29.20;;;4.50;80.60;;;;;;5038290;28;20017;-38
2021/11/14 04:10:53;;;;;;;54.42;29.23;;;4.50;80.30;;;;;;5038491;28;20037;-37
2021/11/14 04:13:19;;;;;;;57.03;27.73;;;4.50;80.10;;;;;;5037986;28;20030;-37
2021/11/14 04:15:46;;;;;;;64.47;33.08;;;4.50;80.00;;;;;;5037991;28;20376;-38
2021/11/14 04:18:12;;;;;;;53.13;30.05;;;4.40;80.10;;;;;;5038128;28;20100;-41
2021/11/14 04:20:40;;;;;;;52.30;28.20;;;4.40;80.20;;;;;;5038102;28;20061;-39
2021/11/14 04:23:07;;;;;;;54.67;29.05;;;4.40;80.20;;;;;;5037843;28;20056;-37
2021/11/14 04:25:33;;;;;;;53.90;27.98;;;4.40;80.10;;;;;;5037995;28;20060;-37
2021/11/14 04:27:59;;;;;;;55.53;29.85;;;4.40;79.90;;;;;;5037831;28;20033;-40
2021/11/14 04:30:26;;;;;;;52.70;28.70;;;4.40;79.90;;;;;;5038177;28;20186;-40
2021/11/14 04:32:53;;;;;;;54.00;28.60;;;4.40;79.80;;;;;;5037660;28;20037;-37
2021/11/14 04:35:20;;;;;;;55.60;28.85;;;4.40;79.80;;;;;;5038320;28;20029;-39
2021/11/14 04:37:48;;;;;;;50.85;27.45;;;4.40;79.90;;;;;;5037508;28;20033;-37
2021/11/14 04:40:17;;;;;;;53.22;23.95;;;4.30;79.90;;;;;;5038299;28;20318;-37
2021/11/14 04:42:42;;;;;;;54.20;28.92;;;4.30;80.00;;;;;;5037345;28;20133;-40
2021/11/14 04:45:08;;;;;;;57.40;27.63;;;4.30;80.00;;;;;;5038168;28;20061;-37
2021/11/14 04:47:35;;;;;;;59.65;28.02;;;4.30;80.00;;;;;;5037442;28;20033;-38
2021/11/14 04:50:01;;;;;;;64.47;32.17;;;4.40;80.10;;;;;;5036509;28;20432;-38
2021/11/14 04:52:27;;;;;;;50.78;28.15;;;4.30;79.90;;;;;;5037548;28;20103;-37
2021/11/14 04:54:52;;;;;;;54.00;27.70;;;4.30;80.00;;;;;;5037745;28;20310;-41
2021/11/14 04:57:19;;;;;;;52.33;25.40;;;4.30;80.10;;;;;;5037228;28;20026;-39
2021/11/14 04:59:44;;;;;;;48.05;24.48;;;4.30;80.30;;;;;;5037744;28;20222;-39
2021/11/14 05:02:10;;;;;;;45.90;24.73;;;4.30;80.40;;;;;;5037379;28;20117;-39
2021/11/14 05:04:36;;;;;;;55.95;26.52;;;4.30;80.50;;;;;;5037669;28;20398;-38
2021/11/14 05:07:02;;;;;;;55.58;27.75;;;4.30;80.40;;;;;;5036072;28;20132;-40
2021/11/14 05:09:28;;;;;;;50.45;26.13;;;4.40;80.40;;;;;;5037372;28;20030;-37
2021/11/14 05:11:53;;;;;;;51.25;26.85;;;4.40;80.40;;;;;;5036988;28;20033;-38
2021/11/14 05:14:19;;;;;;;54.35;26.00;;;4.40;80.30;;;;;;5037509;28;20034;-37
2021/11/14 05:16:45;;;;;;;51.22;25.00;;;4.40;80.30;;;;;;5035709;28;20030;-37
2021/11/14 05:19:11;;;;;;;62.05;29.80;;;4.40;80.40;;;;;;5037297;28;20029;-37
2021/11/14 05:21:38;;;;;;;65.13;31.60;;;4.40;80.40;;;;;;5036749;28;20026;-39
2021/11/14 05:24:06;;;;;;;69.20;32.30;;;4.40;80.40;;;;;;5037127;28;20044;-41
2021/11/14 05:26:31;;;;;;;54.00;28.25;;;4.50;80.40;;;;;;5036734;28;20326;-40
2021/11/14 05:28:57;;;;;;;65.78;32.92;;;4.40;80.50;;;;;;5036923;28;20025;-37
2021/11/14 05:31:24;;;;;;;64.35;32.30;;;4.40;80.50;;;;;;5036838;28;20406;-37
2021/11/14 05:33:49;;;;;;;63.05;30.98;;;4.50;80.60;;;;;;5036845;28;20057;-37
2021/11/14 05:36:15;;;;;;;61.78;31.00;;;4.50;80.40;;;;;;5036697;28;20057;-37
2021/11/14 05:38:41;;;;;;;77.18;36.22;;;4.50;80.40;;;;;;5037050;28;20025;-40
2021/11/14 05:41:06;;;;;;;65.78;33.13;;;4.50;80.50;;;;;;5036409;28;20021;-37
2021/11/14 05:43:32;;;;;;;66.65;31.98;;;4.50;80.50;;;;;;5036633;28;20337;-39
2021/11/14 05:45:58;;;;;;;63.42;31.88;;;4.50;80.50;;;;;;5036437;28;20406;-37
2021/11/14 05:48:23;;;;;;;65.68;32.92;;;4.50;80.50;;;;;;5036531;28;20026;-39
2021/11/14 05:50:49;;;;;;;57.85;29.83;;;4.50;80.70;;;;;;5036330;28;20040;-38
2021/11/14 05:53:15;;;;;;;69.00;32.00;;;4.50;80.80;;;;;;5036139;28;20157;-39
2021/11/14 05:55:40;;;;;;;67.85;32.20;;;4.50;80.90;;;;;;5036384;28;20034;-37
2021/11/14 05:58:17;;;;;;;76.05;37.33;;;4.60;81.20;;;;;;5036384;28;20025;-37
2021/11/14 06:06:11;;;;;;;74.25;37.25;;;4.70;81.70;;;;;;5034746;28;20356;-41
2021/11/14 06:08:36;;;;;;;80.82;41.95;;;4.70;81.80;;;;;;5036147;28;20025;-40
2021/11/14 06:11:02;;;;;;;80.95;41.13;;;4.70;81.90;;;;;;5035794;28;20044;-40
2021/11/14 06:13:32;;;;;;;78.68;39.80;;;4.80;82.00;;;;;;5036208;28;20025;-40
2021/11/14 06:15:59;;;;;;;77.38;38.10;;;4.80;82.00;;;;;;5035798;28;20034;-36
2021/11/14 06:18:24;;;;;;;80.90;37.70;;;4.90;82.20;;;;;;5035679;28;20037;-40
2021/11/14 06:20:50;;;;;;;68.38;35.88;;;4.90;82.20;;;;;;5035893;28;20026;-40
2021/11/14 06:23:16;;;;;;;76.00;36.63;;;4.90;82.30;;;;;;5035811;28;20402;-37
2021/11/14 06:25:42;;;;;;;76.05;35.70;;;4.90;82.30;;;;;;5036006;28;20117;-37
2021/11/14 06:28:08;;;;;;;78.28;38.03;;;5.00;82.30;;;;;;5034425;28;20437;-40
2021/11/14 06:30:35;;;;;;;69.32;34.20;;;5.00;82.40;;;;;;5035762;28;20227;-40
2021/11/14 06:33:02;;;;;;;72.53;33.78;;;5.00;82.40;;;;;;5035560;28;20425;-37
2021/11/14 06:35:28;;;;;;;63.35;31.80;;;5.00;82.40;;;;;;5035332;28;20053;-37
2021/11/14 06:37:54;;;;;;;64.35;31.95;;;5.00;82.60;;;;;;5035625;28;20291;-40
2021/11/14 06:40:21;;;;;;;62.05;32.90;;;5.10;82.90;;;;;;5036070;28;20031;-38
2021/11/14 06:42:47;;;;;;;75.28;34.97;;;5.10;82.90;;;;;;5035064;28;20077;-39
2021/11/14 06:45:13;;;;;;;68.93;34.63;;;5.10;82.90;;;;;;5035955;28;20072;-38
2021/11/14 06:47:39;;;;;;;75.03;34.88;;;5.20;83.00;;;;;;5034362;28;20026;-39
2021/11/14 06:50:06;;;;;;;68.05;33.85;;;5.20;83.00;;;;;;5035308;28;20040;-38
2021/11/14 06:52:32;;;;;;;68.82;33.97;;;5.30;83.10;;;;;;5035527;28;20371;-38
2021/11/14 06:54:58;;;;;;;72.78;36.33;;;5.40;83.00;;;;;;5035669;28;20116;-40
2021/11/14 06:57:24;;;;;;;59.42;30.13;;;5.40;83.00;;;;;;5035078;28;20078;-39
2021/11/14 06:59:50;;;;;;;70.30;36.00;;;5.50;83.00;;;;;;5035766;28;20017;-37
2021/11/14 07:02:16;;;;;;;67.80;33.85;;;5.50;83.00;;;;;;5035044;28;20355;-40
2021/11/14 07:04:42;;;;;;;64.70;32.85;;;5.60;83.00;;;;;;5035597;28;20296;-40
2021/11/14 07:07:08;;;;;;;66.75;31.60;;;5.60;82.90;;;;;;5035333;28;20033;-40
2021/11/14 07:09:34;;;;;;;64.65;32.58;;;5.70;82.80;;;;;;5035458;28;20398;-41
2021/11/14 07:11:59;;;;;;;65.05;32.55;;;5.80;82.90;;;;;;5034677;28;20041;-40
2021/11/14 07:14:27;;;;;;;73.57;36.33;;;5.80;82.80;;;;;;5035358;28;20056;-39
2021/11/14 07:16:54;;;;;;;70.10;34.33;;;5.90;82.80;;;;;;5034883;28;20091;-37
2021/11/14 07:19:20;;;;;;;71.43;33.85;;;6.00;82.70;;;;;;5035660;28;20425;-40
2021/11/14 07:21:46;;;;;;;64.60;32.28;;;6.10;82.80;;;;;;5045966;28;20041;-37
2021/11/14 07:24:12;;;;;;;60.13;32.08;;;6.10;82.70;;;;;;5035369;28;20116;-37
2021/11/14 07:26:37;;;;;;;71.75;32.53;;;6.20;82.70;;;;;;5034555;28;20078;-36
2021/11/14 07:29:04;;;;;;;62.72;32.05;;;6.30;83.00;;;;;;5035198;28;20040;-36
2021/11/14 07:31:30;;;;;;;71.18;34.67;;;6.40;82.20;;;;;;5038699;28;20369;-37
2021/11/14 07:33:56;;;;;;;71.43;34.45;;;6.40;81.90;;;;;;5038973;28;20353;-36
2021/11/14 07:36:21;;;;;;;86.30;39.25;;;6.50;81.70;;;;;;5038620;28;20029;-38
2021/11/14 07:38:47;;;;;;;81.55;39.55;;;6.60;81.70;;;;;;5038678;28;20105;-37
2021/11/14 07:41:14;;;;;;;87.93;39.70;;;6.60;81.60;;;;;;5038069;28;20414;-40
2021/11/14 07:43:40;;;;;;;92.63;39.55;;;6.70;81.50;;;;;;5037352;28;20079;-38
2021/11/14 07:46:07;;;;;;;74.93;36.97;;;6.80;81.30;;;;;;5037372;28;20021;-40
2021/11/14 07:48:33;;;;;;;88.00;41.10;;;6.90;81.30;;;;;;5037319;28;20457;-37
2021/11/14 07:51:01;;;;;;;86.32;39.28;;;6.90;81.20;;;;;;5049160;28;20143;-39
2021/11/14 07:53:27;;;;;;;95.07;42.00;;;7.00;80.90;;;;;;5056376;28;20032;-40
2021/11/14 07:55:53;;;;;;;93.25;40.60;;;7.10;80.70;;;;;;5056863;28;20370;-40
2021/11/14 07:58:19;;;;;;;99.45;42.30;;;7.20;80.70;;;;;;5052008;28;20040;-40
2021/11/14 08:00:45;;;;;;;99.88;42.38;;;7.30;80.50;;;;;;5056857;28;20037;-37
2021/11/14 08:03:10;;;;;;;119.32;48.65;;;7.40;80.50;;;;;;5056624;28;20023;-38
2021/11/14 08:05:38;;;;;;;105.53;46.53;;;7.50;80.30;;;;;;5057010;28;20060;-39
2021/11/14 08:08:04;;;;;;;112.65;50.00;;;7.50;80.00;;;;;;5056488;28;20469;-37
2021/11/14 08:10:31;;;;;;;122.50;54.75;;;7.60;79.60;;;;;;5056591;28;20072;-37
2021/11/14 08:12:57;;;;;;;114.30;49.00;;;7.70;79.30;;;;;;5056790;28;20037;-37
2021/11/14 08:15:24;;;;;;;119.10;53.03;;;7.80;79.10;;;;;;5056353;28;20091;-38
2021/11/14 08:17:49;;;;;;;110.40;50.53;;;7.90;79.30;;;;;;5056270;28;20021;-41
2021/11/14 08:20:16;;;;;;;120.22;52.88;;;7.90;78.40;;;;;;5056704;28;20033;-40
2021/11/14 08:22:42;;;;;;;124.97;60.88;;;8.00;77.80;;;;;;5056286;28;20017;-36
2021/11/14 08:25:08;;;;;;;137.13;68.78;;;8.10;77.40;;;;;;5056771;28;20033;-39
2021/11/14 08:27:36;;;;;;;169.90;88.22;;;8.10;76.80;;;;;;5056817;28;20044;-40
2021/11/14 08:30:04;;;;;;;179.48;89.22;;;8.10;76.50;;;;;;5056519;28;20033;-41
2021/11/14 08:32:30;;;;;;;167.32;83.55;;;8.10;76.40;;;;;;5056083;28;20481;-41
2021/11/14 08:34:56;;;;;;;165.85;81.90;;;8.20;76.50;;;;;;5056427;28;20121;-37
2021/11/14 08:37:21;;;;;;;166.07;80.07;;;8.20;75.90;;;;;;5056276;28;20099;-39
2021/11/14 08:39:48;;;;;;;179.48;84.68;;;8.20;75.80;;;;;;5057004;28;20028;-39
2021/11/14 08:42:15;;;;;;;165.30;83.20;;;8.30;76.00;;;;;;5001643;28;1575323;-39
2021/11/14 08:44:41;;;;;;;144.65;65.40;;;8.30;76.00;;;;;;5057666;28;20317;-37
2021/11/14 08:47:07;;;;;;;128.52;62.22;;;8.40;75.70;;;;;;5057319;28;20029;-37
2021/11/14 08:49:32;;;;;;;133.30;65.53;;;8.40;75.20;;;;;;5056505;28;20085;-41
2021/11/14 08:51:58;;;;;;;134.02;63.35;;;8.50;75.30;;;;;;5057026;28;20053;-38
2021/11/14 08:54:25;;;;;;;131.23;56.60;;;8.50;75.20;;;;;;5057614;28;20029;-37
2021/11/14 08:56:51;;;;;;;133.38;59.85;;;8.60;74.80;;;;;;5057049;28;20040;-38
2021/11/14 08:59:17;;;;;;;103.63;47.92;;;8.60;74.70;;;;;;5057659;28;20032;-37
2021/11/14 09:01:43;;;;;;;97.50;47.20;;;8.60;74.70;;;;;;5056092;28;20498;-43
2021/11/14 09:04:08;;;;;;;80.22;38.90;;;8.70;74.70;;;;;;5057426;28;20372;-36
2021/11/14 09:06:38;;;;;;;66.43;34.25;;;8.70;74.50;;;;;;5056782;28;20037;-36
2021/11/14 09:09:10;;;;;;;65.35;34.63;;;8.80;74.60;;;;;;5057097;28;20381;-38
2021/11/14 09:11:38;;;;;;;69.03;33.67;;;8.80;74.60;;;;;;5057186;28;20051;-38
2021/11/14 09:14:03;;;;;;;57.83;34.13;;;8.80;74.70;;;;;;5057134;28;20290;-39
2021/11/14 09:16:29;;;;;;;74.88;34.50;;;8.80;75.30;;;;;;5056694;28;20086;-39
2021/11/14 09:18:56;;;;;;;62.47;34.22;;;8.80;74.70;;;;;;5057197;28;20037;-39
2021/11/14 09:21:22;;;;;;;57.78;31.15;;;8.90;74.90;;;;;;5056472;28;20033;-37
2021/11/14 09:23:49;;;;;;;81.57;37.45;;;8.90;75.00;;;;;;5056574;28;20037;-37
2021/11/14 09:26:15;;;;;;;63.70;32.03;;;8.90;75.00;;;;;;5056611;28;20450;-37
2021/11/14 09:28:42;;;;;;;63.65;33.53;;;9.00;74.90;;;;;;5056799;28;20385;-38
2021/11/14 09:31:10;;;;;;;64.30;33.67;;;9.00;74.80;;;;;;5055942;28;20052;-37
2021/11/14 09:33:37;;;;;;;61.20;35.13;;;9.00;74.50;;;;;;5054327;28;20052;-38
2021/11/14 09:36:04;;;;;;;63.42;32.35;;;9.10;74.40;;;;;;5046025;28;20405;-40
2021/11/14 09:38:30;;;;;;;74.93;36.72;;;9.10;74.40;;;;;;5035681;28;20303;-38
2021/11/14 09:40:58;;;;;;;62.72;34.88;;;9.10;74.30;;;;;;5036424;28;20037;-40
2021/11/14 09:43:27;;;;;;;58.53;33.13;;;9.10;74.30;;;;;;5036347;28;20103;-40
2021/11/14 09:45:56;;;;;;;60.83;32.75;;;9.10;74.20;;;;;;5035177;28;20414;-37
2021/11/14 09:48:23;;;;;;;54.90;30.92;;;9.10;74.00;;;;;;5036254;28;20025;-40
2021/11/14 09:50:50;;;;;;;52.92;28.40;;;9.20;74.10;;;;;;5036004;28;20120;-37
2021/11/14 09:53:16;;;;;;;53.67;29.38;;;9.20;74.00;;;;;;5034396;28;20310;-38
2021/11/14 09:55:42;;;;;;;53.17;28.85;;;9.20;74.00;;;;;;5035840;28;20052;-40
2021/11/14 09:58:08;;;;;;;47.53;28.65;;;9.20;74.00;;;;;;5035978;28;20048;-37
2021/11/14 10:00:36;;;;;;;53.53;29.23;;;9.30;74.00;;;;;;5036239;28;20057;-37
2021/11/14 10:03:01;;;;;;;54.83;30.27;;;9.30;74.00;;;;;;5035827;28;20326;-40
2021/11/14 10:05:27;;;;;;;47.97;28.85;;;9.30;73.80;;;;;;5036109;28;20038;-37
2021/11/14 10:07:55;;;;;;;49.45;27.48;;;9.40;73.70;;;;;;5035578;28;20025;-39
2021/11/14 10:10:27;;;;;;;48.50;29.08;;;9.40;73.40;;;;;;5035633;28;20033;-40
2021/11/14 10:12:54;;;;;;;47.20;27.75;;;9.40;73.40;;;;;;5035551;28;20032;-37
2021/11/14 10:15:21;;;;;;;51.80;31.02;;;9.40;73.30;;;;;;5035778;28;20076;-37
2021/11/14 10:17:51;;;;;;;53.83;30.13;;;9.40;73.30;;;;;;5035926;28;20111;-37
2021/11/14 10:20:36;;;;;;;52.58;28.73;;;9.40;73.40;;;;;;5035572;28;20017;-37
2021/11/14 10:23:20;;;;;;;50.88;28.85;;;9.40;73.30;;;;;;5034590;28;20029;-36
2021/11/14 10:25:49;;;;;;;69.82;40.50;;;9.40;73.20;;;;;;5035670;28;20056;-35
2021/11/14 10:28:15;;;;;;;71.80;35.08;;;9.40;73.50;;;;;;5035475;28;20119;-39
2021/11/14 10:30:45;;;;;;;53.60;33.22;;;9.50;73.60;;;;;;5035705;28;20038;-39
2021/11/14 10:33:14;;;;;;;55.45;29.10;;;9.50;73.50;;;;;;5035145;28;20037;-38
2021/11/14 10:35:42;;;;;;;49.85;27.58;;;9.50;73.40;;;;;;5035126;28;20083;-41
2021/11/14 10:38:12;;;;;;;48.17;29.77;;;9.60;73.20;;;;;;5035420;28;20028;-37
2021/11/14 10:40:42;;;;;;;51.33;28.25;;;9.60;73.10;;;;;;5035546;28;20289;-39
2021/11/14 10:43:08;;;;;;;51.25;27.90;;;9.60;73.20;;;;;;5039070;28;20041;-41
2021/11/14 10:45:36;;;;;;;54.47;29.70;;;9.70;73.10;;;;;;5055047;28;20037;-36
2021/11/14 10:48:08;;;;;;;47.78;27.48;;;9.70;72.80;;;;;;5033614;28;20108;-37
2021/11/14 10:50:42;;;;;;;49.63;26.20;;;9.80;72.70;;;;;;5035329;28;20367;-36
2021/11/14 10:53:10;;;;;;;49.88;28.08;;;9.80;72.50;;;;;;5035158;28;20044;-36
2021/11/14 10:55:52;;;;;;;51.67;26.98;;;9.80;72.40;;;;;;5035312;28;20045;-39
2021/11/14 10:58:20;;;;;;;48.00;25.88;;;9.80;72.10;;;;;;5034741;28;20049;-38
2021/11/14 11:00:48;;;;;;;47.90;26.45;;;9.80;72.10;;;;;;5035547;28;20325;-37
2021/11/14 11:03:15;;;;;;;48.55;26.40;;;9.80;72.10;;;;;;5034709;28;20394;-40
2021/11/14 11:05:41;;;;;;;55.42;28.35;;;9.80;72.20;;;;;;5038264;28;20040;-36
2021/11/14 11:08:09;;;;;;;56.22;28.83;;;9.80;72.30;;;;;;5038970;28;20365;-36
2021/11/14 11:10:57;;;;;;;60.95;30.80;;;9.80;72.40;;;;;;5039089;28;20123;-39
2021/11/14 11:13:44;;;;;;;51.08;27.83;;;9.90;72.50;;;;;;5039241;28;20379;-38
2021/11/14 11:16:14;;;;;;;62.88;29.70;;;9.90;72.50;;;;;;5039028;28;20033;-37
2021/11/14 11:18:46;;;;;;;90.07;34.50;;;9.90;72.40;;;;;;5038971;28;20021;-40
2021/11/14 11:21:14;;;;;;;57.03;29.45;;;9.90;72.40;;;;;;5038711;28;20029;-37
2021/11/14 11:23:45;;;;;;;63.17;30.48;;;10.00;72.40;;;;;;5038883;28;20064;-39
2021/11/14 11:26:14;;;;;;;71.32;34.03;;;10.00;72.30;;;;;;5038472;28;20037;-39
2021/11/14 11:28:45;;;;;;;74.35;36.35;;;10.00;72.20;;;;;;5038999;28;20088;-40
2021/11/14 11:31:14;;;;;;;58.88;30.70;;;10.10;72.30;;;;;;5038364;28;20120;-40
2021/11/14 11:33:44;;;;;;;60.22;32.17;;;10.00;72.20;;;;;;5038665;28;20028;-38
2021/11/14 11:36:11;;;;;;;60.38;33.22;;;10.00;72.30;;;;;;5038514;28;20041;-40
2021/11/14 11:38:41;;;;;;;62.83;31.73;;;10.00;72.40;;;;;;5038558;28;20033;-38
2021/11/14 11:41:08;;;;;;;60.78;31.10;;;10.00;72.50;;;;;;5038410;28;20434;-36
2021/11/14 11:43:33;;;;;;;101.50;42.75;;;9.90;72.60;;;;;;5038867;28;20064;-37
2021/11/14 11:46:06;;;;;;;69.85;34.58;;;9.90;72.90;;;;;;5038197;28;20422;-37
2021/11/14 11:48:45;;;;;;;53.10;29.85;;;9.90;73.10;;;;;;5039345;28;20029;-40
2021/11/14 11:51:14;;;;;;;61.72;32.47;;;9.80;73.20;;;;;;5047238;28;20409;-37
2021/11/14 11:53:41;;;;;;;59.33;29.83;;;9.80;73.50;;;;;;5038835;28;20295;-40
2021/11/14 11:56:12;;;;;;;59.13;30.27;;;9.80;73.60;;;;;;5038633;28;20030;-38
2021/11/14 11:58:47;;;;;;;59.38;33.65;;;9.80;73.70;;;;;;5039399;28;20432;-38
2021/11/14 12:01:23;;;;;;;64.03;30.73;;;9.70;73.80;;;;;;5039125;28;20625;-42
2021/11/14 12:03:50;;;;;;;56.83;30.42;;;9.70;73.90;;;;;;5038200;28;20288;-37
2021/11/14 12:06:24;;;;;;;66.65;33.70;;;9.70;74.10;;;;;;5037608;28;20312;-37
2021/11/14 12:08:54;;;;;;;67.25;34.05;;;9.70;74.20;;;;;;5038217;28;20115;-39
2021/11/14 12:11:29;;;;;;;62.88;32.92;;;9.60;74.30;;;;;;5038020;28;20333;-37
2021/11/14 12:13:55;;;;;;;61.65;31.80;;;9.60;74.50;;;;;;5037883;28;20064;-38
2021/11/14 12:16:30;;;;;;;67.25;34.55;;;9.60;74.60;;;;;;5037214;28;20033;-39
2021/11/14 12:18:56;;;;;;;71.82;43.35;;;9.60;74.70;;;;;;5037842;28;20034;-41
2021/11/14 12:21:23;;;;;;;74.85;40.28;;;9.60;74.80;;;;;;5048006;28;20151;-38
2021/11/14 12:24:02;;;;;;;87.88;44.40;;;9.60;74.90;;;;;;5038471;28;20029;-43
2021/11/14 12:26:34;;;;;;;70.65;37.05;;;9.50;74.80;;;;;;5037511;28;20051;-39
2021/11/14 12:29:05;;;;;;;63.95;35.25;;;9.50;74.90;;;;;;5037806;28;20053;-40
2021/11/14 12:31:32;;;;;;;67.55;32.60;;;9.50;75.00;;;;;;5037547;28;20334;-37
2021/11/14 12:34:07;;;;;;;65.82;34.17;;;9.50;75.00;;;;;;5037228;28;20033;-40
2021/11/14 12:36:43;;;;;;;58.42;32.55;;;9.50;75.20;;;;;;5037350;28;20038;-39
2021/11/14 12:39:16;;;;;;;53.15;32.30;;;9.40;75.30;;;;;;5040413;28;20037;-39
2021/11/14 12:41:54;;;;;;;59.05;32.60;;;9.40;75.50;;;;;;5037312;28;20022;-41